Ocklawaha, Florida
Current Conditions -  °F | °C
As of 5:00 AM on Sunday 23 Nov 2014 (Local Time) from KLEE Reporting Station
Overcast Overcast  
Wind Chill: 69°   Ceiling: 800
Heat Index: 69°   Visibility: 10mi
Dew Point: 68°   Wind: 8mph
Humidity: 96%   Direction: 140°SE
Pressure: 30"   Gusts: NA
Location:  29.07°N, 81.91°W
Report Text: KLEE 231000Z AUTO 14007KT 10SM OVC008 21/20 A3000 RMK AO2 CIG 005V013 T02060200
Loading
Personal Weather Stations






























Interactive Weather Map New forecast layout! Learn more

10-Day Weather Forecast

Advertisements
Track Severe Weather on mobile